Chapman, Maine
Current Conditions -  °F | °C
As of 6:54 PM on Sunday 25 Jan 2015 (Local Time) from KCAR Reporting Station
Clear Clear  
Wind Chill: -5°   Ceiling: Unl
Heat Index:   Visibility: 10mi
Dew Point: -4°   Wind: 10mph
Humidity: 56%   Direction: 280°W
Pressure: 29.57"   Gusts: 22mph
Location:  46.5489°N, 68.172°W
Report Text: KCAR 252354Z AUTO 28009G19KT 10SM CLR M13/M20 A2957 RMK AO2 PRESRR SLP026 60000 T11281200 11078 21128 51047
Loading
Personal Weather Stations






























Interactive Weather Map New forecast layout! Learn more

10-Day Weather Forecast

Advertisements
Track Severe Weather on mobile